Aviation Digital Data Service (ADDS)

Output produced by METARs form (0021 UTC 17 July 2019)
found at http://www.aviationweather.gov/metar/data/
 
LCRA 162350Z 08004KT CAVOK 22/20 Q1004 NOSIG
TAF LCRA 162229Z 1700/1718 07005KT CAVOK 
     PROB30 1706/1709 SCT020 
     BECMG 1709/1712 26018G28KT
       
LCLK 170000Z VRB02KT CAVOK 23/17 Q1004 NOSIG
TAF LCLK 162330Z 1700/1724 VRB03KT CAVOK 
     PROB30 
     TEMPO 1700/1705 0800 BCFG SCT003 BKN008 
     BECMG 1707/1710 17011KT 
     BECMG 1711/1713 22021KT 
     BECMG 1717/1721 22008KT
       
LCPH 170000Z 06005KT CAVOK 23/13 Q1003
TAF LCPH 162330Z 1700/1724 09008KT CAVOK 
     PROB30 
     TEMPO 1700/1707 SCT007 BKN012 
     BECMG 1704/1707 17013KT 
     BECMG 1711/1715 27017KT 
     BECMG 1718/1722 32007KT